Time;durP1;ratioP1;P1;durP2;ratioP2;P2;SDS_P1;SDS_P2;PMS_P1;PMS_P2;Temp;Humidity;BMP_temperature;BMP_pressure;BME280_temperature;BME280_humidity;BME280_pressure;Samples;Min_cycle;Max_cycle;Signal;HPM_P1;HPM_P2
2024/04/26 00:01:25;;;;;;;1.95;1.05;;;10.90;91.30;;;;;;5451642;26;20272;-77
2024/04/26 00:03:51;;;;;;;6.28;1.30;;;10.90;91.40;;;;;;5452839;26;20284;-77
2024/04/26 00:06:17;;;;;;;4.05;1.40;;;10.90;91.50;;;;;;5465750;26;20280;-78
2024/04/26 00:08:43;;;;;;;4.75;1.75;;;10.90;91.40;;;;;;5444030;26;20273;-77
2024/04/26 00:11:09;;;;;;;3.28;1.67;;;10.90;91.50;;;;;;5483619;26;20233;-77
2024/04/26 00:13:35;;;;;;;5.50;1.10;;;10.80;91.50;;;;;;5443208;26;20226;-77
2024/04/26 00:16:02;;;;;;;3.50;1.27;;;10.80;91.60;;;;;;5482091;26;20281;-77
2024/04/26 00:18:29;;;;;;;6.63;2.30;;;10.80;91.60;;;;;;5434232;26;20230;-77
2024/04/26 00:20:58;;;;;;;4.90;1.63;;;10.80;91.70;;;;;;5451353;26;20226;-77
2024/04/26 00:23:25;;;;;;;4.68;1.60;;;10.80;91.60;;;;;;5463259;26;20239;-78
2024/04/26 00:25:51;;;;;;;4.53;1.52;;;10.70;91.80;;;;;;5465999;26;20646;-78
2024/04/26 00:28:17;;;;;;;5.05;1.60;;;10.70;91.70;;;;;;5450499;26;20222;-78
2024/04/26 00:30:43;;;;;;;2.45;1.30;;;10.70;91.80;;;;;;5458618;26;20225;-78
2024/04/26 00:33:09;;;;;;;4.75;1.15;;;10.70;91.70;;;;;;5455041;26;20266;-78
2024/04/26 00:35:35;;;;;;;4.63;1.23;;;10.70;91.90;;;;;;5486353;26;20243;-78
2024/04/26 00:38:01;;;;;;;2.78;1.20;;;10.70;91.60;;;;;;5471658;26;20269;-78
2024/04/26 00:40:27;;;;;;;3.90;1.50;;;10.70;92.00;;;;;;5456977;26;20222;-77
2024/04/26 00:42:55;;;;;;;3.63;1.25;;;10.70;91.90;;;;;;5440681;26;20233;-77
2024/04/26 00:45:21;;;;;;;2.75;1.52;;;10.70;92.00;;;;;;5449426;26;20634;-78
2024/04/26 00:47:47;;;;;;;2.50;1.23;;;10.70;92.10;;;;;;5439492;26;20266;-77
2024/04/26 00:50:14;;;;;;;3.97;1.13;;;10.70;92.10;;;;;;5446226;26;20280;-77
2024/04/26 00:52:41;;;;;;;3.85;1.50;;;10.70;92.10;;;;;;5469578;26;20619;-76
2024/04/26 00:55:09;;;;;;;3.47;1.33;;;10.70;92.20;;;;;;5447372;26;20744;-77
2024/04/26 00:57:36;;;;;;;3.28;1.40;;;10.70;92.30;;;;;;5418810;26;20583;-77
2024/04/26 01:00:02;;;;;;;3.75;1.45;;;10.70;92.00;;;;;;5456504;26;20334;-77
2024/04/26 01:02:30;;;;;;;4.88;1.40;;;10.70;92.00;;;;;;5438894;26;20225;-77
2024/04/26 01:04:56;;;;;;;5.78;1.20;;;10.60;92.10;;;;;;5425379;26;20233;-77
2024/04/26 01:07:22;;;;;;;3.78;1.20;;;10.70;92.30;;;;;;5463382;26;20265;-78
2024/04/26 01:09:48;;;;;;;6.15;1.40;;;10.60;92.20;;;;;;5426823;26;20333;-78
2024/04/26 01:12:14;;;;;;;3.70;1.25;;;10.70;92.40;;;;;;5447009;26;20278;-77
2024/04/26 01:14:40;;;;;;;2.47;1.20;;;10.70;92.40;;;;;;5450643;26;20222;-78
2024/04/26 01:17:06;;;;;;;3.72;1.42;;;10.70;92.20;;;;;;5450248;26;20381;-77
2024/04/26 01:19:32;;;;;;;3.85;1.40;;;10.70;92.30;;;;;;5435367;26;20286;-78
2024/04/26 01:22:24;;;;;;;6.00;1.75;;;10.70;92.40;;;;;;5436978;26;20250;-78
2024/04/26 01:24:50;;;;;;;2.70;1.25;;;10.60;92.00;;;;;;5447562;26;20272;-79
2024/04/26 01:27:16;;;;;;;4.55;1.30;;;10.70;92.40;;;;;;5452962;26;20298;-78
2024/04/26 01:29:42;;;;;;;6.00;1.45;;;10.70;92.40;;;;;;5450555;26;20330;-78
2024/04/26 01:32:08;;;;;;;4.18;1.60;;;10.60;92.40;;;;;;5441464;26;20294;-78
2024/04/26 01:34:34;;;;;;;2.40;1.33;;;10.70;92.60;;;;;;5435699;26;20272;-78
2024/04/26 01:37:00;;;;;;;5.38;1.58;;;10.60;92.60;;;;;;5450091;26;20225;-78
2024/04/26 01:39:26;;;;;;;3.83;1.52;;;10.70;92.70;;;;;;5433662;26;20262;-78
2024/04/26 01:41:53;;;;;;;5.43;1.35;;;10.60;92.60;;;;;;5479928;26;20270;-78
2024/04/26 01:44:19;;;;;;;2.45;1.13;;;10.70;92.70;;;;;;5424655;26;20918;-78
2024/04/26 01:46:45;;;;;;;3.25;1.83;;;10.60;92.70;;;;;;5429284;26;20276;-78
2024/04/26 01:49:11;;;;;;;3.25;1.30;;;10.60;92.60;;;;;;5438718;26;20234;-78
2024/04/26 01:51:37;;;;;;;1.70;0.90;;;10.60;92.80;;;;;;5447918;26;20225;-78
2024/04/26 01:54:03;;;;;;;4.20;1.20;;;10.60;92.70;;;;;;5444025;26;20269;-78
2024/04/26 01:56:29;;;;;;;3.92;1.27;;;10.60;92.80;;;;;;5442732;26;20293;-78
2024/04/26 01:58:55;;;;;;;3.20;1.45;;;10.60;92.90;;;;;;5445846;26;20298;-78
2024/04/26 02:01:23;;;;;;;3.10;1.50;;;10.60;93.00;;;;;;5436169;26;20276;-78
2024/04/26 02:03:51;;;;;;;3.97;1.25;;;10.60;93.00;;;;;;5429286;26;20601;-78
2024/04/26 02:06:17;;;;;;;3.53;0.90;;;10.60;93.00;;;;;;5444913;26;20229;-78
2024/04/26 02:08:43;;;;;;;2.00;1.00;;;10.50;93.10;;;;;;5451265;26;20268;-78
2024/04/26 02:11:10;;;;;;;3.47;1.35;;;10.50;93.10;;;;;;5451591;26;20660;-78
2024/04/26 02:13:36;;;;;;;5.00;1.13;;;10.50;93.10;;;;;;5435659;26;20285;-78
2024/04/26 02:16:02;;;;;;;3.92;1.17;;;10.50;93.10;;;;;;5442771;26;20613;-78
2024/04/26 02:18:28;;;;;;;5.88;1.52;;;10.50;93.30;;;;;;5436296;26;20261;-78
2024/04/26 02:20:54;;;;;;;3.80;1.25;;;10.50;93.30;;;;;;5451664;26;20798;-77
2024/04/26 02:23:20;;;;;;;3.53;1.38;;;10.50;93.40;;;;;;5437686;26;20226;-78
2024/04/26 02:25:46;;;;;;;2.88;1.00;;;10.40;93.40;;;;;;5463776;26;20335;-77
2024/04/26 02:28:12;;;;;;;6.25;1.60;;;10.40;93.50;;;;;;5439398;26;20287;-78
2024/04/26 02:30:38;;;;;;;2.95;1.35;;;10.50;93.60;;;;;;5443462;26;20226;-77
2024/04/26 02:33:04;;;;;;;3.80;1.50;;;10.50;93.70;;;;;;5452896;26;20289;-76
2024/04/26 02:35:30;;;;;;;3.17;1.00;;;10.50;93.70;;;;;;5436116;26;20280;-77
2024/04/26 02:37:56;;;;;;;2.70;1.25;;;10.50;93.80;;;;;;5445438;26;20275;-77
2024/04/26 02:40:23;;;;;;;3.70;1.10;;;10.50;93.90;;;;;;5451024;26;20601;-77
2024/04/26 02:42:49;;;;;;;2.80;1.17;;;10.50;93.90;;;;;;5421056;26;20237;-77
2024/04/26 02:45:15;;;;;;;3.95;1.42;;;10.50;94.00;;;;;;5453122;26;20306;-77
2024/04/26 02:47:41;;;;;;;3.08;1.63;;;10.50;94.00;;;;;;5452431;26;20638;-76
2024/04/26 02:50:07;;;;;;;5.88;2.05;;;10.50;94.00;;;;;;5454324;26;20229;-77
2024/04/26 02:52:33;;;;;;;2.35;1.17;;;10.50;94.10;;;;;;5451069;26;20557;-77
2024/04/26 02:54:59;;;;;;;4.53;1.40;;;10.50;94.10;;;;;;5486547;26;20225;-77
2024/04/26 02:57:25;;;;;;;3.70;1.15;;;10.50;94.10;;;;;;5485223;26;20586;-77
2024/04/26 02:59:51;;;;;;;2.35;1.10;;;10.50;94.20;;;;;;5449282;26;20230;-78
2024/04/26 03:02:20;;;;;;;3.45;1.23;;;10.50;94.30;;;;;;5455925;26;20226;-78
2024/04/26 03:04:47;;;;;;;4.78;2.03;;;10.50;94.30;;;;;;5450407;26;20298;-77
2024/04/26 03:07:16;;;;;;;3.65;1.10;;;10.50;94.40;;;;;;5450372;26;20264;-78
2024/04/26 03:09:44;;;;;;;5.97;1.30;;;10.50;94.50;;;;;;5437538;26;20229;-78
2024/04/26 03:12:10;;;;;;;2.67;1.00;;;10.50;94.50;;;;;;5480978;26;20270;-77
2024/04/26 03:14:38;;;;;;;2.15;0.80;;;10.50;94.50;;;;;;5464407;26;20230;-77
2024/04/26 03:17:04;;;;;;;4.03;1.70;;;10.50;94.60;;;;;;5452316;26;20234;-77
2024/04/26 03:19:30;;;;;;;6.32;2.22;;;10.50;94.70;;;;;;5457402;26;20232;-77
2024/04/26 03:21:56;;;;;;;4.28;1.50;;;10.50;94.70;;;;;;5442850;26;20515;-77
2024/04/26 03:24:22;;;;;;;1.80;1.00;;;10.50;94.70;;;;;;5446533;26;20226;-77
2024/04/26 03:26:49;;;;;;;2.80;1.30;;;10.50;94.80;;;;;;5494940;26;20234;-77
2024/04/26 03:29:15;;;;;;;2.97;1.80;;;10.50;94.80;;;;;;5429489;26;20269;-77
2024/04/26 03:31:41;;;;;;;3.65;1.50;;;10.50;94.90;;;;;;5452376;26;20285;-77
2024/04/26 03:34:08;;;;;;;4.80;2.00;;;10.50;94.90;;;;;;5420089;26;20230;-77
2024/04/26 03:36:34;;;;;;;3.30;1.00;;;10.50;95.00;;;;;;5440384;26;20222;-77
2024/04/26 03:39:00;;;;;;;4.03;1.40;;;10.50;95.00;;;;;;5460353;26;20267;-77
2024/04/26 03:41:27;;;;;;;3.55;1.60;;;10.40;95.10;;;;;;5438336;26;20666;-77
2024/04/26 03:43:53;;;;;;;7.25;1.30;;;10.50;95.20;;;;;;5450724;26;20759;-77
2024/04/26 03:46:19;;;;;;;3.47;1.23;;;10.50;95.20;;;;;;5487609;26;20277;-77
2024/04/26 03:48:49;;;;;;;2.85;1.50;;;10.50;95.30;;;;;;5452148;26;20225;-77
2024/04/26 03:51:15;;;;;;;4.32;1.80;;;10.40;95.30;;;;;;5460948;26;20263;-77
2024/04/26 03:53:41;;;;;;;4.38;1.50;;;10.40;95.40;;;;;;5449760;26;20238;-77
2024/04/26 03:56:07;;;;;;;5.25;2.03;;;10.40;95.40;;;;;;5461940;26;20276;-77
2024/04/26 03:58:33;;;;;;;2.90;1.25;;;10.40;95.40;;;;;;5451714;26;20226;-77
2024/04/26 04:00:59;;;;;;;3.50;1.73;;;10.40;95.50;;;;;;5464049;26;20310;-76
2024/04/26 04:03:25;;;;;;;3.72;1.52;;;10.40;95.60;;;;;;5451942;26;20225;-77
2024/04/26 04:05:51;;;;;;;7.30;1.80;;;10.40;95.60;;;;;;5451333;26;20233;-77
2024/04/26 04:08:18;;;;;;;3.75;1.70;;;10.40;95.70;;;;;;5455110;26;20229;-77
2024/04/26 04:10:44;;;;;;;3.00;1.60;;;10.40;95.80;;;;;;5434674;26;20245;-77
2024/04/26 04:13:10;;;;;;;6.30;1.75;;;10.40;95.80;;;;;;5451363;26;20230;-77
2024/04/26 04:15:36;;;;;;;5.30;1.55;;;10.40;95.90;;;;;;5453605;26;20238;-77
2024/04/26 04:18:02;;;;;;;5.55;1.63;;;10.40;95.90;;;;;;5461980;26;20288;-77
2024/04/26 04:20:28;;;;;;;3.40;1.42;;;10.40;96.00;;;;;;5482526;26;20611;-77
2024/04/26 04:22:54;;;;;;;4.15;1.48;;;10.40;96.00;;;;;;5429911;26;20306;-78
2024/04/26 04:25:20;;;;;;;5.40;1.75;;;10.50;96.20;;;;;;5407262;26;20724;-77
2024/04/26 04:27:46;;;;;;;4.68;1.60;;;10.50;96.30;;;;;;5456044;26;20709;-77
2024/04/26 04:30:13;;;;;;;5.40;1.40;;;10.50;96.30;;;;;;5449825;26;20233;-77
2024/04/26 04:32:39;;;;;;;5.40;1.70;;;10.50;96.30;;;;;;5451104;26;20288;-77
2024/04/26 04:35:05;;;;;;;3.70;1.67;;;10.50;96.40;;;;;;5443654;26;20231;-77
2024/04/26 04:37:31;;;;;;;2.90;1.40;;;10.60;96.50;;;;;;5441467;26;20282;-77
2024/04/26 04:39:58;;;;;;;4.57;1.33;;;10.60;96.50;;;;;;5429143;26;20266;-77
2024/04/26 04:42:24;;;;;;;2.38;1.30;;;10.60;96.60;;;;;;5435236;26;20273;-77
2024/04/26 04:44:50;;;;;;;6.85;2.70;;;10.60;96.60;;;;;;5450235;26;20222;-77
2024/04/26 04:47:16;;;;;;;3.83;1.73;;;10.70;96.70;;;;;;5461908;26;20280;-78
2024/04/26 04:49:42;;;;;;;4.47;1.85;;;10.70;96.80;;;;;;5452414;26;21629;-78
2024/04/26 04:52:08;;;;;;;8.48;1.60;;;10.70;96.80;;;;;;5451012;26;20221;-78
2024/04/26 04:54:35;;;;;;;3.70;1.65;;;10.70;96.70;;;;;;5454281;26;20285;-78
2024/04/26 04:57:01;;;;;;;3.33;1.70;;;10.70;96.80;;;;;;5442708;26;20299;-78
2024/04/26 04:59:27;;;;;;;3.50;1.67;;;10.70;96.80;;;;;;5437144;26;20229;-78
2024/04/26 05:01:53;;;;;;;6.05;1.77;;;10.70;97.00;;;;;;5439017;26;20294;-77
2024/04/26 05:04:19;;;;;;;6.55;1.60;;;10.70;96.90;;;;;;5465266;26;20322;-78
2024/04/26 05:06:45;;;;;;;5.75;1.70;;;10.80;97.10;;;;;;5447984;26;20565;-78
2024/04/26 05:09:12;;;;;;;6.30;2.22;;;10.80;96.90;;;;;;5443205;26;20273;-77
2024/04/26 05:11:38;;;;;;;6.32;2.00;;;10.80;97.10;;;;;;5440743;26;20268;-77
2024/04/26 05:14:04;;;;;;;4.93;2.38;;;10.90;97.20;;;;;;5427746;26;20274;-77
2024/04/26 05:16:30;;;;;;;3.72;1.88;;;10.90;97.20;;;;;;5449691;26;20305;-79
2024/04/26 05:18:56;;;;;;;4.20;1.83;;;10.90;97.30;;;;;;5451004;26;20226;-78
2024/04/26 05:21:22;;;;;;;3.08;1.60;;;11.00;97.40;;;;;;5435977;26;20285;-78
2024/04/26 05:23:48;;;;;;;3.33;1.50;;;11.10;97.50;;;;;;5444414;26;20233;-78
2024/04/26 05:26:14;;;;;;;3.10;1.40;;;11.10;97.60;;;;;;5442492;26;20269;-78
2024/04/26 05:28:40;;;;;;;4.18;1.95;;;11.20;97.80;;;;;;5446066;26;20759;-78
2024/04/26 05:31:07;;;;;;;4.43;1.52;;;11.30;97.80;;;;;;5452606;26;20233;-78
2024/04/26 05:33:33;;;;;;;3.67;1.90;;;11.40;97.90;;;;;;5446054;26;20230;-78
2024/04/26 05:35:59;;;;;;;3.80;1.30;;;11.50;97.90;;;;;;5462740;26;20621;-78
2024/04/26 05:38:25;;;;;;;6.40;2.35;;;11.50;97.90;;;;;;5450320;26;20225;-78
2024/04/26 05:40:52;;;;;;;3.90;1.60;;;11.60;98.00;;;;;;5443326;26;20225;-78
2024/04/26 05:43:19;;;;;;;6.20;1.70;;;11.70;98.10;;;;;;5438796;26;20768;-79
2024/04/26 05:45:45;;;;;;;3.80;2.15;;;11.80;98.20;;;;;;5438318;26;20804;-79
2024/04/26 05:48:11;;;;;;;5.28;1.65;;;11.90;98.30;;;;;;5451639;26;20222;-79
2024/04/26 05:50:37;;;;;;;4.90;1.88;;;12.00;98.40;;;;;;5435142;26;20252;-79
2024/04/26 05:53:08;;;;;;;3.65;2.00;;;12.10;98.50;;;;;;5446747;26;20268;-79
2024/04/26 05:55:34;;;;;;;4.35;1.67;;;12.20;98.50;;;;;;5448066;26;20671;-78
2024/04/26 05:58:00;;;;;;;5.00;1.60;;;12.40;98.70;;;;;;5447619;26;20623;-78
2024/04/26 06:00:29;;;;;;;9.35;2.08;;;12.60;98.90;;;;;;5453898;26;20555;-78
2024/04/26 06:02:56;;;;;;;8.43;1.70;;;12.80;99.20;;;;;;5445865;26;20265;-77
2024/04/26 06:05:22;;;;;;;3.40;2.20;;;13.00;99.10;;;;;;5441512;26;20933;-77
2024/04/26 06:07:50;;;;;;;4.23;1.87;;;13.20;99.10;;;;;;5448525;26;20540;-77
2024/04/26 06:10:16;;;;;;;8.13;2.50;;;13.40;99.30;;;;;;5449270;26;20584;-77
2024/04/26 06:12:42;;;;;;;9.03;1.83;;;13.50;99.10;;;;;;5447181;26;20547;-78
2024/04/26 06:15:08;;;;;;;5.30;2.10;;;13.70;99.30;;;;;;5449109;26;20543;-77
2024/04/26 06:17:34;;;;;;;4.50;1.87;;;13.90;99.00;;;;;;5448957;26;20583;-77
2024/04/26 06:20:01;;;;;;;4.83;1.67;;;14.10;99.10;;;;;;5449005;26;20958;-76
2024/04/26 06:22:27;;;;;;;4.23;1.67;;;14.30;99.10;;;;;;5432907;26;20645;-77
2024/04/26 06:24:53;;;;;;;4.17;1.40;;;14.60;99.40;;;;;;5434892;26;20520;-77
2024/04/26 06:27:19;;;;;;;5.93;1.90;;;15.10;99.80;;;;;;5446185;26;20587;-77
2024/04/26 06:29:45;;;;;;;4.83;1.97;;;15.40;99.80;;;;;;5443064;26;20543;-78
2024/04/26 06:32:11;;;;;;;3.50;1.70;;;15.80;99.30;;;;;;5440196;26;20607;-78
2024/04/26 06:34:37;;;;;;;7.53;2.33;;;16.00;99.10;;;;;;5475258;26;20520;-77
2024/04/26 06:37:07;;;;;;;5.83;2.20;;;16.10;98.00;;;;;;5474358;26;20655;-77
2024/04/26 06:39:34;;;;;;;5.40;2.80;;;16.10;97.00;;;;;;5470757;26;20467;-76
2024/04/26 06:42:00;;;;;;;6.78;2.72;;;16.00;94.80;;;;;;5481314;26;20459;-77
2024/04/26 06:44:27;;;;;;;5.67;1.90;;;15.80;93.10;;;;;;5434233;26;20242;-76
2024/04/26 06:46:53;;;;;;;4.27;2.27;;;15.70;94.00;;;;;;5437588;26;20636;-76
2024/04/26 06:49:19;;;;;;;4.97;2.70;;;15.70;94.50;;;;;;5429820;26;20602;-76
2024/04/26 06:51:47;;;;;;;5.17;2.60;;;15.70;94.50;;;;;;5443476;26;20563;-77
2024/04/26 06:54:13;;;;;;;6.47;3.05;;;15.70;94.60;;;;;;5430337;26;20470;-77
2024/04/26 06:56:39;;;;;;;4.53;2.07;;;15.60;93.00;;;;;;5443175;26;20281;-76
2024/04/26 06:59:05;;;;;;;4.97;2.20;;;15.60;93.80;;;;;;5435110;26;20572;-76
2024/04/26 07:01:31;;;;;;;7.63;2.03;;;15.70;94.30;;;;;;5443823;26;20627;-75
2024/04/26 07:03:57;;;;;;;3.60;1.60;;;15.80;94.80;;;;;;5444065;26;20543;-77
2024/04/26 07:06:23;;;;;;;2.73;1.40;;;16.00;95.30;;;;;;5473195;26;20635;-77
2024/04/26 07:08:50;;;;;;;5.37;2.03;;;16.20;95.80;;;;;;5480295;26;20599;-77
2024/04/26 07:11:16;;;;;;;4.10;2.07;;;16.50;96.30;;;;;;5436193;26;20540;-77
2024/04/26 07:13:43;;;;;;;4.83;2.10;;;16.90;96.50;;;;;;5441747;26;21152;-75
2024/04/26 07:16:09;;;;;;;7.40;1.60;;;17.20;96.10;;;;;;5447011;26;20638;-76
2024/04/26 07:18:35;;;;;;;4.67;2.00;;;17.40;95.80;;;;;;5450365;26;20527;-76
2024/04/26 07:21:01;;;;;;;3.50;2.43;;;17.60;95.30;;;;;;5480595;26;20571;-76
2024/04/26 07:23:27;;;;;;;5.00;2.27;;;17.60;94.30;;;;;;5453211;26;20515;-76
2024/04/26 07:25:55;;;;;;;3.63;2.20;;;17.60;93.70;;;;;;5438979;26;21159;-76
2024/04/26 07:28:21;;;;;;;4.83;2.00;;;17.50;93.50;;;;;;5452526;26;20527;-76
2024/04/26 07:30:48;;;;;;;3.93;1.83;;;17.40;93.30;;;;;;5450653;26;20648;-76
2024/04/26 07:33:14;;;;;;;8.63;1.63;;;17.40;93.30;;;;;;5439376;26;21282;-76
2024/04/26 07:35:40;;;;;;;3.93;2.33;;;17.40;93.50;;;;;;5447453;26;20563;-76
2024/04/26 07:38:08;;;;;;;6.90;2.20;;;17.30;93.10;;;;;;5451427;26;20662;-76
2024/04/26 07:40:34;;;;;;;9.30;2.20;;;17.20;92.90;;;;;;5436915;26;20568;-76
2024/04/26 07:43:00;;;;;;;4.97;2.40;;;17.10;92.80;;;;;;5416520;26;20608;-76
2024/04/26 07:45:27;;;;;;;3.93;2.00;;;17.00;92.90;;;;;;5449243;26;20586;-76
2024/04/26 07:47:53;;;;;;;4.20;1.97;;;17.00;93.00;;;;;;5480163;26;20907;-76
2024/04/26 07:50:21;;;;;;;5.30;1.90;;;17.00;93.10;;;;;;5453141;26;20579;-76
2024/04/26 07:52:48;;;;;;;6.33;2.43;;;16.90;93.00;;;;;;5451225;26;20531;-75
2024/04/26 07:55:14;;;;;;;4.13;1.77;;;16.90;93.10;;;;;;5451296;26;20948;-75
2024/04/26 07:57:40;;;;;;;10.50;2.30;;;16.90;93.10;;;;;;5449636;26;20479;-75
2024/04/26 08:00:06;;;;;;;5.60;1.77;;;16.90;91.90;;;;;;5409927;26;20277;-75
2024/04/26 08:02:32;;;;;;;3.93;1.70;;;16.90;92.40;;;;;;5451137;26;20588;-75
2024/04/26 08:05:01;;;;;;;6.20;2.17;;;16.90;92.50;;;;;;5449699;26;20599;-75
2024/04/26 08:07:28;;;;;;;6.37;2.47;;;16.90;92.40;;;;;;5430309;26;20604;-75
2024/04/26 08:09:54;;;;;;;6.57;2.20;;;16.80;92.30;;;;;;5438193;26;20607;-75
2024/04/26 08:12:20;;;;;;;6.50;2.30;;;16.80;92.30;;;;;;5474980;26;21388;-76
2024/04/26 08:14:47;;;;;;;4.00;2.17;;;16.80;92.50;;;;;;5447655;26;20608;-75
2024/04/26 08:17:13;;;;;;;6.53;2.47;;;16.80;92.30;;;;;;5439341;26;20559;-75
2024/04/26 08:19:39;;;;;;;5.93;1.93;;;16.70;92.40;;;;;;5450568;26;20559;-74
2024/04/26 08:22:05;;;;;;;3.37;1.90;;;16.70;92.30;;;;;;5450708;26;20601;-75
2024/04/26 08:24:31;;;;;;;6.30;1.60;;;16.60;92.30;;;;;;5451337;26;20584;-76
2024/04/26 08:26:59;;;;;;;7.73;2.83;;;16.60;92.40;;;;;;5448035;26;20648;-76
2024/04/26 08:29:25;;;;;;;5.03;1.80;;;16.60;92.50;;;;;;5446620;26;20654;-76
2024/04/26 08:31:53;;;;;;;5.43;1.60;;;16.60;92.60;;;;;;5427375;26;21183;-76
2024/04/26 08:34:23;;;;;;;7.10;2.17;;;16.60;92.70;;;;;;5445211;26;20533;-76
2024/04/26 08:36:50;;;;;;;6.30;2.00;;;16.70;93.20;;;;;;5417898;26;20579;-75
2024/04/26 08:39:16;;;;;;;7.47;2.50;;;16.70;92.80;;;;;;5479106;26;20543;-76
2024/04/26 08:41:43;;;;;;;3.70;2.17;;;16.70;92.90;;;;;;5448136;26;20562;-76
2024/04/26 08:44:10;;;;;;;4.57;2.20;;;16.80;92.90;;;;;;5477875;26;20535;-75
2024/04/26 08:46:37;;;;;;;5.13;2.10;;;16.80;92.80;;;;;;5447875;26;20624;-75
2024/04/26 08:49:04;;;;;;;5.53;2.30;;;16.90;93.00;;;;;;5434567;26;20521;-75
2024/04/26 08:51:33;;;;;;;7.33;2.27;;;17.00;93.20;;;;;;5440825;26;20619;-75
2024/04/26 08:53:59;;;;;;;6.20;2.97;;;17.10;93.20;;;;;;5449823;26;21159;-76
2024/04/26 08:56:27;;;;;;;5.13;2.20;;;17.10;93.10;;;;;;5440545;26;20581;-75
2024/04/26 08:58:55;;;;;;;6.13;1.90;;;17.20;92.80;;;;;;5449525;26;20519;-75
2024/04/26 09:01:21;;;;;;;5.13;2.10;;;17.20;92.40;;;;;;5448518;26;20547;-75
2024/04/26 09:03:49;;;;;;;4.10;1.83;;;17.20;92.30;;;;;;5447325;26;20543;-75
2024/04/26 09:06:16;;;;;;;6.47;2.43;;;17.10;92.10;;;;;;5441906;26;20633;-75
2024/04/26 09:08:43;;;;;;;4.67;3.00;;;17.10;91.90;;;;;;5449563;26;20595;-75
2024/04/26 09:11:17;;;;;;;7.20;3.20;;;17.00;91.70;;;;;;5446361;26;20549;-75
2024/04/26 09:13:43;;;;;;;5.37;2.30;;;17.00;91.40;;;;;;5430330;26;20580;-75
2024/04/26 09:16:09;;;;;;;4.63;2.23;;;16.90;91.60;;;;;;5428989;26;20639;-76
2024/04/26 09:18:35;;;;;;;4.83;2.20;;;16.90;91.60;;;;;;5450271;26;20875;-76
2024/04/26 09:21:05;;;;;;;4.27;2.10;;;16.80;91.70;;;;;;5449655;26;20555;-76
2024/04/26 09:23:33;;;;;;;5.50;2.30;;;16.80;91.70;;;;;;5448281;26;20520;-76
2024/04/26 09:26:06;;;;;;;5.60;2.00;;;16.70;91.90;;;;;;5446556;26;20563;-76
2024/04/26 09:28:33;;;;;;;4.03;2.60;;;16.80;92.00;;;;;;5477931;26;20563;-76
2024/04/26 09:30:59;;;;;;;4.77;2.30;;;16.80;92.30;;;;;;5449258;26;20612;-76
2024/04/26 09:33:28;;;;;;;4.93;2.47;;;16.80;92.40;;;;;;5478628;26;20564;-77
2024/04/26 09:35:55;;;;;;;4.87;2.27;;;16.80;92.60;;;;;;5439534;26;20576;-77
2024/04/26 09:38:22;;;;;;;5.00;2.40;;;16.90;92.80;;;;;;5439041;26;20624;-76
2024/04/26 09:40:49;;;;;;;5.13;2.30;;;16.90;93.40;;;;;;5449145;26;20588;-76
2024/04/26 09:43:18;;;;;;;6.37;2.40;;;17.10;93.40;;;;;;5449877;26;20595;-76
2024/04/26 09:45:49;;;;;;;10.27;2.90;;;17.20;93.70;;;;;;5447844;26;20658;-76
2024/04/26 09:48:15;;;;;;;5.23;2.77;;;17.40;93.70;;;;;;5438579;26;20537;-76
2024/04/26 09:50:42;;;;;;;7.67;2.87;;;17.60;93.90;;;;;;5453918;26;20536;-76
2024/04/26 09:53:09;;;;;;;6.60;2.30;;;17.80;94.40;;;;;;5448416;26;21210;-75
2024/04/26 09:55:35;;;;;;;4.70;2.20;;;18.00;93.70;;;;;;5411663;26;20629;-75
2024/04/26 09:58:02;;;;;;;4.23;2.33;;;18.20;93.70;;;;;;5448606;26;20960;-75
2024/04/26 10:00:29;;;;;;;5.90;2.87;;;18.40;93.60;;;;;;5449405;26;20872;-75
2024/04/26 10:03:00;;;;;;;5.03;3.00;;;18.50;93.80;;;;;;5445678;26;21125;-75
2024/04/26 10:05:27;;;;;;;5.53;2.33;;;18.70;93.90;;;;;;5477314;26;20583;-75
2024/04/26 10:08:07;;;;;;;3.60;1.83;;;19.00;94.40;;;;;;5440295;26;20544;-75
2024/04/26 10:10:35;;;;;;;4.13;1.80;;;19.30;93.70;;;;;;5449490;26;20520;-74
2024/04/26 10:13:15;;;;;;;3.87;2.20;;;19.60;93.50;;;;;;5434078;26;20551;-73
2024/04/26 10:16:00;;;;;;;4.30;2.20;;;19.70;92.90;;;;;;5448314;26;21264;-74
2024/04/26 10:18:39;;;;;;;6.47;2.43;;;19.80;92.40;;;;;;5439851;26;20515;-74
2024/04/26 10:21:06;;;;;;;5.10;2.20;;;19.90;92.00;;;;;;5444117;26;20580;-75
2024/04/26 10:23:35;;;;;;;9.73;2.33;;;19.90;91.90;;;;;;5477638;26;20528;-75
2024/04/26 10:26:09;;;;;;;7.13;3.60;;;19.80;91.30;;;;;;5477778;26;20688;-74
2024/04/26 10:28:38;;;;;;;7.03;3.00;;;19.80;91.00;;;;;;5447628;26;20600;-74
2024/04/26 10:31:05;;;;;;;8.80;3.40;;;19.70;91.00;;;;;;5439160;26;21076;-74
2024/04/26 10:33:34;;;;;;;4.73;2.50;;;19.70;90.90;;;;;;5477254;26;20572;-74
2024/04/26 10:36:06;;;;;;;5.38;3.47;;;19.60;90.90;;;;;;5445396;26;20579;-76
2024/04/26 10:38:48;;;;;;;6.47;3.60;;;19.40;87.20;;;;;;5449655;26;20229;-77
2024/04/26 10:41:18;;;;;;;6.10;2.90;;;19.30;89.70;;;;;;5460222;26;20516;-77
2024/04/26 10:43:45;;;;;;;5.00;3.50;;;19.30;90.00;;;;;;5451098;26;20540;-75
2024/04/26 10:46:18;;;;;;;5.33;3.40;;;19.40;90.20;;;;;;5449499;26;20624;-75
2024/04/26 10:48:44;;;;;;;5.13;3.33;;;19.50;90.60;;;;;;5445220;26;20520;-75
2024/04/26 10:51:12;;;;;;;6.28;3.70;;;19.60;90.50;;;;;;5449933;26;21047;-75
2024/04/26 10:53:41;;;;;;;6.60;2.90;;;19.60;90.10;;;;;;5451869;26;20275;-75
2024/04/26 10:56:18;;;;;;;4.30;2.90;;;19.70;90.70;;;;;;5479570;26;20990;-75
2024/04/26 10:58:46;;;;;;;5.23;3.60;;;19.80;89.90;;;;;;5449169;26;20534;-75
2024/04/26 11:01:22;;;;;;;6.00;3.27;;;19.80;90.60;;;;;;5451750;26;20584;-75
2024/04/26 11:03:57;;;;;;;6.10;3.27;;;19.90;90.20;;;;;;5452909;26;21079;-75
2024/04/26 11:06:29;;;;;;;6.37;3.00;;;19.90;90.20;;;;;;5428162;26;20570;-75
2024/04/26 11:09:11;;;;;;;4.93;2.83;;;20.00;90.00;;;;;;5451601;26;20524;-75
2024/04/26 11:11:47;;;;;;;5.50;3.10;;;20.10;90.00;;;;;;5449603;26;20560;-75
2024/04/26 11:14:13;;;;;;;6.57;3.20;;;20.30;90.80;;;;;;5439932;26;20513;-76
2024/04/26 11:16:40;;;;;;;5.17;3.43;;;20.40;90.90;;;;;;5435058;26;20646;-75
2024/04/26 11:19:08;;;;;;;5.70;2.37;;;20.60;90.20;;;;;;5450927;26;20687;-75
2024/04/26 11:21:34;;;;;;;6.37;3.07;;;20.70;90.00;;;;;;5451464;26;20532;-76
2024/04/26 11:24:00;;;;;;;6.67;2.93;;;20.70;89.10;;;;;;5479942;26;20587;-75
2024/04/26 11:26:27;;;;;;;6.30;3.30;;;20.60;87.60;;;;;;5450664;26;20559;-77
2024/04/26 11:28:53;;;;;;;7.67;3.20;;;20.50;87.60;;;;;;5480159;26;20536;-76
2024/04/26 11:31:19;;;;;;;7.23;3.57;;;20.30;86.70;;;;;;5450963;26;20632;-75
2024/04/26 11:33:45;;;;;;;5.67;3.10;;;20.20;86.60;;;;;;5443219;26;20580;-75
2024/04/26 11:36:11;;;;;;;5.83;2.80;;;20.10;86.80;;;;;;5444095;26;20563;-75
2024/04/26 11:38:37;;;;;;;7.20;3.50;;;20.10;87.10;;;;;;5435222;26;20645;-75
2024/04/26 11:41:03;;;;;;;5.70;3.00;;;20.00;86.70;;;;;;5481233;26;20931;-76
2024/04/26 11:43:30;;;;;;;8.67;3.80;;;20.00;86.60;;;;;;5451565;26;20588;-76
2024/04/26 11:45:56;;;;;;;8.10;3.97;;;19.90;86.40;;;;;;5448811;26;20575;-75
2024/04/26 11:48:22;;;;;;;5.40;3.30;;;19.80;86.10;;;;;;5447239;26;20662;-75
2024/04/26 11:50:48;;;;;;;6.20;3.50;;;19.80;86.70;;;;;;5450516;26;20535;-76
2024/04/26 11:53:15;;;;;;;7.37;3.37;;;19.80;87.20;;;;;;5480484;26;20527;-76
2024/04/26 11:55:43;;;;;;;5.43;3.90;;;19.80;87.70;;;;;;5450889;26;20571;-75
2024/04/26 11:58:09;;;;;;;6.33;3.33;;;19.90;87.90;;;;;;5449044;26;20575;-76
2024/04/26 12:00:35;;;;;;;6.10;3.30;;;20.00;87.80;;;;;;5451054;26;20531;-76
2024/04/26 12:03:02;;;;;;;5.77;3.07;;;20.00;87.90;;;;;;5450582;26;20929;-77
2024/04/26 12:05:28;;;;;;;4.80;3.33;;;20.00;87.80;;;;;;5448052;26;20643;-77
2024/04/26 12:07:54;;;;;;;7.43;3.60;;;20.10;87.70;;;;;;5450226;26;20613;-76
2024/04/26 12:10:20;;;;;;;5.80;3.50;;;20.10;87.70;;;;;;5451038;26;20561;-76
2024/04/26 12:12:46;;;;;;;5.10;2.80;;;20.10;87.20;;;;;;5448052;26;20527;-76
2024/04/26 12:15:13;;;;;;;7.63;4.30;;;20.00;86.70;;;;;;5479608;26;20591;-77
2024/04/26 12:17:39;;;;;;;6.03;3.40;;;20.00;86.60;;;;;;5457576;26;20637;-76
2024/04/26 12:20:05;;;;;;;6.27;3.80;;;20.00;86.50;;;;;;5475301;26;20669;-75
2024/04/26 12:22:32;;;;;;;4.53;3.20;;;19.90;86.00;;;;;;5450787;26;20964;-76
2024/04/26 12:24:58;;;;;;;7.77;3.63;;;19.80;85.70;;;;;;5441723;26;20579;-76
2024/04/26 12:27:24;;;;;;;5.77;3.60;;;19.70;85.80;;;;;;5449908;26;20580;-77
2024/04/26 12:29:51;;;;;;;7.20;3.97;;;19.70;86.10;;;;;;5450502;26;21183;-77
2024/04/26 12:32:17;;;;;;;5.40;4.20;;;19.70;86.30;;;;;;5479033;26;20646;-76
2024/04/26 12:34:44;;;;;;;6.47;3.00;;;19.70;86.60;;;;;;5444652;26;20996;-76
2024/04/26 12:37:10;;;;;;;5.87;2.97;;;19.70;87.10;;;;;;5449706;26;20559;-76
2024/04/26 12:39:39;;;;;;;4.33;3.43;;;19.80;87.50;;;;;;5436627;26;20895;-75
2024/04/26 12:42:06;;;;;;;6.77;3.57;;;19.80;87.40;;;;;;5447933;26;20535;-76
2024/04/26 12:44:32;;;;;;;7.90;2.53;;;19.90;87.50;;;;;;5450415;26;20536;-76
2024/04/26 12:46:59;;;;;;;6.73;3.07;;;19.90;87.70;;;;;;5447961;26;21018;-75